Time;durP1;ratioP1;P1;durP2;ratioP2;P2;SDS_P1;SDS_P2;PMS_P1;PMS_P2;Temp;Humidity;BMP_temperature;BMP_pressure;BME280_temperature;BME280_humidity;BME280_pressure;Samples;Min_cycle;Max_cycle;Signal;HPM_P1;HPM_P2
2022/10/08 00:00:01;;;;;;;11.52;3.75;;;13.00;99.90;;;;;;5077924;28;20056;-79
2022/10/08 00:02:28;;;;;;;10.20;3.30;;;13.00;99.90;;;;;;5056596;28;20048;-80
2022/10/08 00:04:54;;;;;;;13.32;3.85;;;13.00;99.90;;;;;;5013139;28;20496;-79
2022/10/08 00:07:20;;;;;;;10.82;3.42;;;13.00;99.90;;;;;;5050211;28;20033;-79
2022/10/08 00:09:46;;;;;;;14.48;4.03;;;13.00;99.90;;;;;;5063475;28;20047;-80
2022/10/08 00:12:12;;;;;;;8.88;3.20;;;13.00;99.90;;;;;;5046417;28;20453;-80
2022/10/08 00:14:39;;;;;;;9.95;2.88;;;13.00;99.90;;;;;;5047297;28;20484;-79
2022/10/08 00:17:05;;;;;;;12.75;3.38;;;13.00;99.90;;;;;;5072573;28;20045;-80
2022/10/08 00:19:31;;;;;;;11.27;3.30;;;13.00;99.90;;;;;;5048051;28;20105;-80
2022/10/08 00:21:57;;;;;;;8.95;3.08;;;13.00;99.90;;;;;;5046400;28;20048;-80
2022/10/08 00:24:23;;;;;;;9.23;2.50;;;13.00;99.90;;;;;;5065335;28;20043;-80
2022/10/08 00:26:51;;;;;;;10.07;2.92;;;13.00;99.90;;;;;;5043782;28;20075;-80
2022/10/08 00:29:19;;;;;;;11.57;2.97;;;13.00;99.90;;;;;;5029402;28;20228;-80
2022/10/08 00:31:47;;;;;;;10.88;3.10;;;13.00;99.90;;;;;;5060671;28;20568;-80
2022/10/08 00:34:22;;;;;;;13.10;3.60;;;13.00;99.90;;;;;;5065208;28;20475;-80
2022/10/08 00:36:54;;;;;;;11.82;2.75;;;12.90;99.90;;;;;;5045694;28;20041;-79
2022/10/08 00:39:23;;;;;;;8.05;2.45;;;12.90;99.90;;;;;;5062128;28;20055;-80
2022/10/08 00:41:51;;;;;;;9.02;2.60;;;12.90;99.90;;;;;;5043068;28;20237;-80
2022/10/08 00:44:45;;;;;;;10.00;2.67;;;12.90;99.90;;;;;;5063923;28;20187;-79
2022/10/08 00:47:18;;;;;;;8.77;2.80;;;12.90;99.90;;;;;;5043442;28;20052;-80
2022/10/08 00:49:45;;;;;;;9.43;3.13;;;12.80;99.90;;;;;;5060539;28;20595;-79
2022/10/08 00:52:10;;;;;;;10.48;3.00;;;12.80;99.90;;;;;;5024992;28;20682;-80
2022/10/08 00:54:36;;;;;;;8.02;2.92;;;12.80;99.90;;;;;;5057819;28;20076;-81
2022/10/08 00:57:02;;;;;;;10.32;2.97;;;12.80;99.90;;;;;;5074724;28;20076;-80
2022/10/08 00:59:28;;;;;;;9.27;2.78;;;12.80;99.90;;;;;;5060207;28;20084;-79
2022/10/08 01:01:54;;;;;;;7.45;3.13;;;12.80;99.90;;;;;;5043148;28;20490;-81
2022/10/08 01:04:20;;;;;;;10.15;3.35;;;12.80;99.90;;;;;;5011927;28;20110;-81
2022/10/08 01:07:12;;;;;;;9.00;3.33;;;12.70;99.90;;;;;;5042234;28;20044;-80
2022/10/08 01:09:52;;;;;;;8.35;3.10;;;12.70;99.90;;;;;;5060914;28;20063;-79
2022/10/08 01:12:51;;;;;;;12.10;3.47;;;12.70;99.90;;;;;;5076234;28;20043;-79
2022/10/08 01:15:38;;;;;;;8.82;3.20;;;12.60;99.90;;;;;;5031962;28;20049;-79
2022/10/08 01:18:16;;;;;;;9.05;3.10;;;12.60;99.90;;;;;;5057920;28;20045;-79
2022/10/08 01:21:12;;;;;;;8.02;3.42;;;12.60;99.90;;;;;;5062345;28;20040;-81
2022/10/08 01:24:10;;;;;;;10.57;3.38;;;12.50;99.90;;;;;;5021308;28;20091;-79
2022/10/08 01:26:51;;;;;;;7.18;2.92;;;12.50;99.90;;;;;;5047691;28;20130;-79
2022/10/08 01:29:25;;;;;;;8.57;3.00;;;12.50;99.90;;;;;;5041193;28;20049;-79
2022/10/08 01:32:10;;;;;;;10.32;3.55;;;12.50;99.90;;;;;;5056728;28;20059;-79
2022/10/08 01:34:44;;;;;;;10.30;3.67;;;12.50;99.90;;;;;;5044068;28;20520;-78
2022/10/08 01:37:21;;;;;;;14.45;5.15;;;12.50;99.90;;;;;;5031646;28;20048;-78
2022/10/08 01:39:51;;;;;;;11.48;4.88;;;12.50;99.90;;;;;;5057162;28;20137;-77
2022/10/08 01:42:22;;;;;;;9.43;3.03;;;12.50;99.90;;;;;;5040827;28;20040;-77
2022/10/08 01:44:54;;;;;;;11.00;4.65;;;12.50;99.90;;;;;;5048695;28;20499;-77
2022/10/08 01:47:25;;;;;;;9.43;4.03;;;12.50;99.90;;;;;;5072614;28;20522;-76
2022/10/08 01:50:08;;;;;;;9.35;3.90;;;12.50;99.90;;;;;;5041299;28;20456;-77
2022/10/08 01:52:50;;;;;;;9.73;4.03;;;12.50;99.90;;;;;;5056754;28;20671;-77
2022/10/08 01:55:21;;;;;;;10.55;3.92;;;12.50;99.90;;;;;;5060930;28;20044;-76
2022/10/08 01:57:49;;;;;;;8.73;4.18;;;12.40;99.90;;;;;;5060759;28;20144;-77
2022/10/08 02:00:15;;;;;;;9.35;4.00;;;12.40;99.90;;;;;;5059807;28;20147;-76
2022/10/08 02:02:42;;;;;;;11.73;4.45;;;12.40;99.90;;;;;;5019545;28;20566;-77
2022/10/08 02:05:10;;;;;;;11.82;3.92;;;12.30;99.90;;;;;;5035710;28;20038;-77
2022/10/08 02:07:41;;;;;;;10.60;4.70;;;12.30;99.90;;;;;;5057167;28;20049;-77
2022/10/08 02:10:15;;;;;;;14.02;4.80;;;12.30;99.90;;;;;;5043872;28;20056;-77
2022/10/08 02:12:42;;;;;;;11.40;4.35;;;12.30;99.90;;;;;;5057414;28;20060;-77
2022/10/08 02:15:15;;;;;;;12.90;4.93;;;12.30;99.90;;;;;;5059680;28;20028;-77
2022/10/08 02:18:08;;;;;;;9.50;5.00;;;12.30;99.90;;;;;;5069072;28;20045;-77
2022/10/08 02:20:41;;;;;;;10.70;4.88;;;12.30;99.90;;;;;;5051910;28;20056;-77
2022/10/08 02:23:51;;;;;;;10.93;4.95;;;12.40;99.90;;;;;;5070521;28;20079;-77
2022/10/08 02:26:24;;;;;;;12.98;5.50;;;12.30;99.90;;;;;;5021726;28;20037;-78
2022/10/08 02:28:59;;;;;;;10.90;5.45;;;12.30;99.90;;;;;;5009518;28;20057;-78
2022/10/08 02:31:31;;;;;;;13.32;5.40;;;12.30;99.90;;;;;;5045111;28;20067;-77
2022/10/08 02:34:06;;;;;;;11.63;4.97;;;12.30;99.90;;;;;;5053855;28;20055;-77
2022/10/08 02:36:37;;;;;;;11.68;5.38;;;12.30;99.90;;;;;;5062702;28;20135;-78
2022/10/08 02:39:04;;;;;;;11.93;4.85;;;12.20;99.90;;;;;;5047213;28;20059;-77
2022/10/08 02:41:36;;;;;;;10.10;4.55;;;12.20;99.90;;;;;;5029156;28;20049;-77
2022/10/08 02:44:11;;;;;;;10.30;5.93;;;12.30;99.90;;;;;;5056010;28;20041;-77
2022/10/08 02:46:41;;;;;;;13.15;5.55;;;12.20;99.90;;;;;;5057596;28;20048;-77
2022/10/08 02:49:18;;;;;;;10.65;5.15;;;12.20;99.90;;;;;;5051012;28;20124;-77
2022/10/08 02:51:49;;;;;;;11.60;5.03;;;12.20;99.90;;;;;;5069367;28;20040;-77
2022/10/08 02:54:19;;;;;;;13.27;5.55;;;12.20;99.90;;;;;;5067812;28;20129;-77
2022/10/08 02:56:53;;;;;;;8.75;4.70;;;12.20;99.90;;;;;;5057544;28;20084;-77
2022/10/08 02:59:20;;;;;;;11.45;4.82;;;12.10;99.90;;;;;;5041856;28;20056;-77
2022/10/08 03:01:56;;;;;;;10.13;4.88;;;12.10;99.90;;;;;;5057984;28;20052;-77
2022/10/08 03:04:30;;;;;;;9.57;4.75;;;12.00;99.90;;;;;;5039730;28;20063;-77
2022/10/08 03:07:00;;;;;;;7.43;4.35;;;12.00;99.90;;;;;;5055498;28;20048;-77
2022/10/08 03:09:33;;;;;;;9.07;4.40;;;11.90;99.90;;;;;;5043712;28;20560;-77
2022/10/08 03:12:02;;;;;;;11.30;5.05;;;11.90;99.90;;;;;;5074080;28;20056;-77
2022/10/08 03:14:33;;;;;;;10.05;4.95;;;11.90;99.90;;;;;;5036816;28;20052;-77
2022/10/08 03:16:59;;;;;;;10.98;5.28;;;11.80;99.90;;;;;;5055055;28;20041;-77
2022/10/08 03:19:26;;;;;;;8.30;5.00;;;11.80;99.90;;;;;;5023420;28;20390;-77
2022/10/08 03:21:55;;;;;;;10.38;5.07;;;11.70;99.90;;;;;;5060879;28;20056;-77
2022/10/08 03:24:21;;;;;;;8.90;4.25;;;11.70;99.90;;;;;;5050721;28;20110;-77
2022/10/08 03:26:46;;;;;;;7.82;4.35;;;11.70;99.90;;;;;;5034820;28;20511;-77
2022/10/08 03:29:12;;;;;;;9.95;5.32;;;11.70;99.90;;;;;;5052188;28;20049;-77
2022/10/08 03:31:38;;;;;;;11.05;4.35;;;11.60;99.90;;;;;;5040375;28;20129;-77
2022/10/08 03:34:04;;;;;;;9.82;4.50;;;11.60;99.90;;;;;;5078481;28;20064;-77
2022/10/08 03:36:30;;;;;;;11.40;5.03;;;11.60;99.90;;;;;;5049956;28;20131;-77
2022/10/08 03:38:56;;;;;;;15.30;6.53;;;11.60;99.90;;;;;;5048292;28;20132;-76
2022/10/08 03:41:21;;;;;;;9.70;4.85;;;11.60;99.90;;;;;;5061168;28;20503;-77
2022/10/08 03:43:47;;;;;;;11.35;5.05;;;11.60;99.90;;;;;;5020699;28;20043;-77
2022/10/08 03:46:14;;;;;;;11.80;5.32;;;11.60;99.90;;;;;;5050611;28;20045;-77
2022/10/08 03:48:41;;;;;;;11.77;4.65;;;11.60;99.90;;;;;;5067871;28;20383;-76
2022/10/08 03:51:12;;;;;;;9.43;4.72;;;11.60;99.90;;;;;;5047583;28;20049;-77
2022/10/08 03:53:39;;;;;;;10.90;4.30;;;11.60;99.90;;;;;;5041477;28;20056;-77
2022/10/08 03:56:17;;;;;;;12.00;4.45;;;11.60;99.90;;;;;;5044459;28;20081;-77
2022/10/08 03:58:44;;;;;;;11.27;4.60;;;11.50;99.90;;;;;;5078595;28;20244;-77
2022/10/08 04:01:15;;;;;;;13.18;4.70;;;11.50;99.90;;;;;;5049722;28;20052;-77
2022/10/08 04:03:44;;;;;;;9.07;4.35;;;11.50;99.90;;;;;;5061188;28;20040;-78
2022/10/08 04:06:10;;;;;;;14.13;5.60;;;11.50;99.90;;;;;;5068157;28;20044;-78
2022/10/08 04:08:37;;;;;;;10.23;4.85;;;11.50;99.90;;;;;;5048758;28;20048;-77
2022/10/08 04:11:04;;;;;;;11.20;4.78;;;11.50;99.90;;;;;;5045996;28;20045;-78
2022/10/08 04:13:30;;;;;;;11.10;5.47;;;11.50;99.90;;;;;;5039165;28;20044;-78
2022/10/08 04:16:10;;;;;;;11.50;6.53;;;11.50;99.90;;;;;;5046483;28;20079;-77
2022/10/08 04:18:37;;;;;;;11.77;4.93;;;11.50;99.90;;;;;;5050905;28;20142;-78
2022/10/08 04:21:05;;;;;;;13.68;5.80;;;11.50;99.90;;;;;;5034731;28;20131;-78
2022/10/08 04:23:33;;;;;;;12.35;5.50;;;11.50;99.90;;;;;;5074917;28;20040;-78
2022/10/08 04:26:00;;;;;;;14.27;6.05;;;11.50;99.90;;;;;;5056609;28;20049;-78
2022/10/08 04:28:26;;;;;;;13.20;5.75;;;11.50;99.90;;;;;;5070919;28;20055;-78
2022/10/08 04:31:04;;;;;;;12.63;5.65;;;11.50;99.90;;;;;;5043048;28;20032;-78
2022/10/08 04:33:34;;;;;;;16.80;5.95;;;11.50;99.90;;;;;;5050938;28;20097;-78
2022/10/08 04:36:00;;;;;;;12.10;5.18;;;11.50;99.90;;;;;;5062510;28;20044;-77
2022/10/08 04:38:27;;;;;;;10.90;5.40;;;11.50;99.90;;;;;;5040133;28;20041;-77
2022/10/08 04:41:17;;;;;;;12.70;5.03;;;11.50;99.90;;;;;;5043237;28;20045;-78
2022/10/08 04:43:47;;;;;;;12.18;4.60;;;11.50;99.90;;;;;;5054299;28;20089;-77
2022/10/08 04:46:16;;;;;;;16.15;5.15;;;11.50;99.90;;;;;;5055346;28;20060;-77
2022/10/08 04:48:50;;;;;;;10.95;4.95;;;11.50;99.90;;;;;;5063482;28;20045;-77
2022/10/08 04:51:17;;;;;;;10.65;4.65;;;11.50;99.90;;;;;;5045603;28;20135;-78
2022/10/08 04:53:43;;;;;;;12.93;4.40;;;11.50;99.90;;;;;;5037435;28;20083;-77
2022/10/08 04:56:15;;;;;;;12.57;4.13;;;11.50;99.90;;;;;;5041547;28;20052;-78
2022/10/08 04:58:41;;;;;;;11.50;4.72;;;11.50;99.90;;;;;;5053979;28;20057;-78
2022/10/08 05:01:09;;;;;;;12.82;4.20;;;11.50;99.90;;;;;;5032687;28;20768;-78
2022/10/08 05:03:41;;;;;;;10.00;4.20;;;11.50;99.90;;;;;;5055527;28;20098;-78
2022/10/08 05:06:07;;;;;;;12.70;4.82;;;11.60;99.90;;;;;;5058792;28;20036;-78
2022/10/08 05:08:34;;;;;;;9.75;3.80;;;11.60;99.90;;;;;;5054655;28;20047;-78
2022/10/08 05:11:00;;;;;;;13.50;4.10;;;11.60;99.90;;;;;;5046199;28;20051;-78
2022/10/08 05:13:25;;;;;;;11.65;4.13;;;11.60;99.90;;;;;;5053255;28;20449;-78
2022/10/08 05:15:51;;;;;;;11.40;3.47;;;11.60;99.90;;;;;;5072502;28;20037;-77
2022/10/08 05:18:17;;;;;;;11.65;3.95;;;11.60;99.90;;;;;;5042436;28;20045;-77
2022/10/08 05:20:43;;;;;;;12.23;3.17;;;11.50;99.90;;;;;;5042493;28;20399;-77
2022/10/08 05:23:09;;;;;;;10.02;3.35;;;11.50;99.90;;;;;;5042719;28;20045;-77
2022/10/08 05:25:35;;;;;;;8.10;3.28;;;11.50;99.90;;;;;;5056003;28;20099;-77
2022/10/08 05:28:02;;;;;;;12.50;3.70;;;11.50;99.90;;;;;;5037974;28;20090;-77
2022/10/08 05:30:27;;;;;;;10.05;3.03;;;11.40;99.90;;;;;;5043128;28;20067;-77
2022/10/08 05:32:53;;;;;;;10.98;2.97;;;11.40;99.90;;;;;;5023469;28;20052;-77
2022/10/08 05:35:19;;;;;;;11.18;3.15;;;11.30;99.90;;;;;;5021374;28;20040;-77
2022/10/08 05:37:45;;;;;;;8.75;3.35;;;11.30;99.90;;;;;;5051513;28;20056;-77
2022/10/08 05:40:11;;;;;;;10.60;3.30;;;11.30;99.90;;;;;;5033397;28;20075;-77
2022/10/08 05:42:37;;;;;;;15.13;3.55;;;11.20;99.90;;;;;;5056491;28;20049;-77
2022/10/08 05:45:03;;;;;;;10.50;3.10;;;11.20;99.90;;;;;;5034789;28;20768;-77
2022/10/08 05:47:29;;;;;;;10.75;3.38;;;11.20;99.90;;;;;;5040226;28;20475;-77
2022/10/08 05:49:55;;;;;;;11.68;2.60;;;11.20;99.90;;;;;;5059857;28;20071;-77
2022/10/08 05:52:20;;;;;;;10.70;3.13;;;11.10;99.90;;;;;;5041634;28;20110;-77
2022/10/08 05:54:46;;;;;;;13.15;3.42;;;11.10;99.90;;;;;;5041843;28;20060;-77
2022/10/08 05:57:12;;;;;;;11.52;3.20;;;11.10;99.90;;;;;;5062054;28;20053;-78
2022/10/08 05:59:38;;;;;;;13.60;3.20;;;11.10;99.90;;;;;;5031754;28;20544;-77
2022/10/08 06:02:03;;;;;;;10.90;2.83;;;11.10;99.90;;;;;;5040879;28;20083;-77
2022/10/08 06:04:29;;;;;;;14.80;3.08;;;11.00;99.90;;;;;;5045502;28;20068;-77
2022/10/08 06:06:55;;;;;;;8.88;2.50;;;11.00;99.90;;;;;;5044118;28;20040;-77
2022/10/08 06:09:21;;;;;;;13.02;3.00;;;11.00;99.90;;;;;;5044390;28;20056;-77
2022/10/08 06:11:47;;;;;;;10.05;2.83;;;11.00;99.90;;;;;;5047941;28;20515;-77
2022/10/08 06:14:21;;;;;;;9.38;2.30;;;11.00;99.90;;;;;;5049431;28;20049;-77
2022/10/08 06:16:46;;;;;;;13.02;2.80;;;11.00;99.90;;;;;;5033380;28;20075;-78
2022/10/08 06:19:13;;;;;;;11.20;3.17;;;11.00;99.90;;;;;;5048959;28;20052;-77
2022/10/08 06:21:38;;;;;;;13.32;3.20;;;11.00;99.90;;;;;;5032419;28;20032;-77
2022/10/08 06:24:07;;;;;;;11.25;3.80;;;11.00;99.90;;;;;;5064681;28;20054;-77
2022/10/08 06:26:36;;;;;;;12.45;3.70;;;11.00;99.90;;;;;;5042838;28;20033;-77
2022/10/08 06:29:04;;;;;;;11.10;4.90;;;11.00;99.90;;;;;;5047725;28;20040;-78
2022/10/08 06:31:34;;;;;;;12.75;4.57;;;11.00;99.90;;;;;;5062509;28;20040;-77
2022/10/08 06:34:01;;;;;;;12.77;4.43;;;11.10;99.90;;;;;;5064145;28;20376;-78
2022/10/08 06:36:28;;;;;;;10.88;4.72;;;11.10;99.90;;;;;;5059548;28;20077;-78
2022/10/08 06:38:56;;;;;;;10.73;4.72;;;11.10;99.90;;;;;;5042824;28;20053;-78
2022/10/08 06:41:22;;;;;;;12.88;4.65;;;11.20;99.90;;;;;;5058527;28;20063;-77
2022/10/08 06:43:48;;;;;;;12.85;5.18;;;11.20;99.90;;;;;;5059096;28;20379;-78
2022/10/08 06:46:15;;;;;;;12.88;5.53;;;11.20;99.90;;;;;;5039360;28;20465;-78
2022/10/08 06:48:41;;;;;;;14.23;5.20;;;11.20;99.90;;;;;;5057189;28;20066;-77
2022/10/08 06:51:12;;;;;;;11.85;5.30;;;11.20;99.90;;;;;;5054374;28;20052;-76
2022/10/08 06:53:40;;;;;;;13.95;5.47;;;11.20;99.90;;;;;;5044115;28;20124;-77
2022/10/08 06:56:09;;;;;;;12.93;4.60;;;11.30;99.90;;;;;;5034604;28;20102;-77
2022/10/08 06:58:36;;;;;;;16.58;4.93;;;11.30;99.90;;;;;;5046128;28;20404;-77
2022/10/08 07:01:04;;;;;;;15.02;4.45;;;11.40;99.90;;;;;;5034592;28;20075;-77
2022/10/08 07:03:30;;;;;;;15.63;4.35;;;11.40;99.90;;;;;;5050701;28;20044;-77
2022/10/08 07:06:00;;;;;;;12.73;4.45;;;11.40;99.90;;;;;;5038036;28;20045;-77
2022/10/08 07:08:27;;;;;;;10.57;4.15;;;11.40;99.90;;;;;;5063262;28;20495;-77
2022/10/08 07:10:53;;;;;;;11.98;4.30;;;11.40;99.90;;;;;;5048214;28;20806;-77
2022/10/08 07:13:19;;;;;;;10.02;4.55;;;11.50;99.90;;;;;;5047235;28;20152;-77
2022/10/08 07:15:44;;;;;;;11.82;4.32;;;11.50;99.90;;;;;;5054727;28;21221;-77
2022/10/08 07:18:11;;;;;;;13.02;4.22;;;11.60;99.90;;;;;;5038110;28;20287;-77
2022/10/08 07:20:40;;;;;;;13.98;3.55;;;11.70;99.90;;;;;;5029470;28;20511;-77
2022/10/08 07:23:06;;;;;;;13.50;3.78;;;11.90;99.90;;;;;;5048294;28;20048;-77
2022/10/08 07:25:32;;;;;;;15.98;4.05;;;11.90;99.90;;;;;;5049274;28;20071;-76
2022/10/08 07:27:58;;;;;;;9.27;3.80;;;11.90;99.90;;;;;;5034463;28;20041;-77
2022/10/08 07:30:23;;;;;;;13.00;3.97;;;11.90;99.90;;;;;;5037113;28;20110;-76
2022/10/08 07:32:52;;;;;;;11.75;3.28;;;11.90;99.90;;;;;;5056728;28;20037;-77
2022/10/08 07:35:18;;;;;;;14.57;3.75;;;12.00;99.90;;;;;;5046889;28;20058;-78
2022/10/08 07:37:44;;;;;;;13.95;3.28;;;12.00;99.90;;;;;;5058515;28;20563;-78
2022/10/08 07:40:10;;;;;;;11.35;2.83;;;12.00;99.90;;;;;;5048887;28;20131;-78
2022/10/08 07:42:36;;;;;;;14.15;2.70;;;12.00;99.90;;;;;;5037035;28;20109;-77
2022/10/08 07:45:02;;;;;;;11.82;2.83;;;11.90;99.90;;;;;;5049285;28;20466;-77
2022/10/08 07:47:31;;;;;;;12.00;3.17;;;11.90;99.90;;;;;;5049904;28;20047;-77
2022/10/08 07:49:57;;;;;;;11.65;2.75;;;11.90;99.90;;;;;;5039330;28;20041;-78
2022/10/08 07:52:22;;;;;;;12.80;2.75;;;12.00;99.90;;;;;;5038850;28;20044;-78
2022/10/08 07:54:48;;;;;;;11.48;2.00;;;12.20;99.90;;;;;;5067351;28;20297;-78
2022/10/08 07:57:14;;;;;;;12.88;2.17;;;12.50;99.90;;;;;;5044849;28;20057;-78
2022/10/08 07:59:40;;;;;;;9.55;2.15;;;12.70;99.90;;;;;;5029213;28;20052;-78
2022/10/08 08:02:05;;;;;;;8.40;1.83;;;12.90;99.90;;;;;;5042565;28;20548;-78
2022/10/08 08:04:31;;;;;;;8.43;1.90;;;13.20;99.90;;;;;;5059454;28;20105;-78
2022/10/08 08:06:57;;;;;;;10.02;2.05;;;13.40;99.90;;;;;;5049280;28;20060;-78
2022/10/08 08:09:23;;;;;;;10.93;2.00;;;13.70;99.90;;;;;;5041818;28;20044;-78
2022/10/08 08:11:49;;;;;;;10.00;2.30;;;13.80;99.90;;;;;;5055989;28;20507;-79
2022/10/08 08:14:15;;;;;;;8.77;1.95;;;14.10;99.90;;;;;;5026921;28;20102;-79
2022/10/08 08:16:41;;;;;;;11.10;2.10;;;14.20;99.90;;;;;;5062974;28;20447;-78
2022/10/08 08:19:07;;;;;;;8.95;1.60;;;14.30;99.90;;;;;;5025099;28;20056;-78
2022/10/08 08:21:38;;;;;;;11.00;2.28;;;14.50;99.90;;;;;;5035956;28;20345;-79
2022/10/08 08:24:12;;;;;;;7.13;1.58;;;14.60;99.90;;;;;;5057343;28;20053;-79
2022/10/08 08:26:40;;;;;;;11.45;1.92;;;14.70;99.90;;;;;;5075572;28;20521;-79
2022/10/08 08:29:11;;;;;;;8.48;1.30;;;14.80;99.90;;;;;;5063156;28;20045;-78
2022/10/08 08:31:42;;;;;;;11.77;2.00;;;14.80;99.90;;;;;;5041095;28;20048;-78
2022/10/08 08:34:10;;;;;;;7.97;1.65;;;14.90;99.90;;;;;;5057851;28;20106;-79
2022/10/08 08:36:42;;;;;;;9.82;1.70;;;14.90;99.90;;;;;;5038415;28;20139;-79
2022/10/08 08:39:14;;;;;;;7.60;1.75;;;14.90;99.90;;;;;;5035549;28;20049;-79
2022/10/08 08:42:08;;;;;;;9.35;2.05;;;14.90;99.90;;;;;;5057383;28;20083;-79
2022/10/08 08:44:43;;;;;;;11.68;2.42;;;14.90;99.90;;;;;;5053065;28;20219;-79
2022/10/08 08:47:41;;;;;;;7.55;1.52;;;14.90;99.90;;;;;;5049105;28;20384;-79
2022/10/08 08:50:38;;;;;;;9.10;2.00;;;15.00;99.90;;;;;;5041530;28;20060;-79
2022/10/08 08:53:07;;;;;;;7.35;1.40;;;15.00;99.90;;;;;;5068093;28;20041;-79
2022/10/08 08:55:39;;;;;;;7.68;1.50;;;15.10;99.90;;;;;;5037542;28;20068;-79
2022/10/08 08:58:22;;;;;;;6.40;1.38;;;15.20;99.90;;;;;;5053830;28;20057;-80
2022/10/08 09:00:56;;;;;;;6.47;1.52;;;15.20;99.90;;;;;;5048388;28;20135;-79
2022/10/08 09:03:33;;;;;;;6.32;1.42;;;15.10;99.90;;;;;;5054767;28;20165;-80
2022/10/08 09:06:08;;;;;;;9.38;1.42;;;15.10;99.90;;;;;;5054214;28;20128;-79
2022/10/08 09:08:39;;;;;;;6.55;1.35;;;15.20;99.90;;;;;;5056616;28;20516;-80
2022/10/08 09:11:05;;;;;;;7.03;1.20;;;15.30;99.90;;;;;;5038091;28;20136;-80
2022/10/08 09:13:44;;;;;;;7.82;1.98;;;15.30;99.90;;;;;;5047674;28;20052;-81
2022/10/08 09:16:12;;;;;;;7.53;1.50;;;15.20;99.90;;;;;;5062214;28;20074;-79
2022/10/08 09:18:40;;;;;;;5.80;1.27;;;15.20;99.90;;;;;;5055929;28;20510;-80
2022/10/08 09:21:06;;;;;;;6.75;1.48;;;15.00;99.90;;;;;;5041605;28;20048;-80
2022/10/08 09:23:32;;;;;;;6.20;1.52;;;15.00;99.90;;;;;;5052505;28;20048;-79
2022/10/08 09:26:03;;;;;;;6.47;1.20;;;14.90;99.90;;;;;;5028039;28;20036;-80
2022/10/08 09:28:43;;;;;;;6.32;1.20;;;14.90;99.90;;;;;;5057064;28;20053;-80
2022/10/08 09:31:31;;;;;;;6.40;1.30;;;14.90;99.90;;;;;;5052990;28;20603;-81
2022/10/08 09:34:17;;;;;;;8.02;1.55;;;14.90;99.90;;;;;;5041481;28;20045;-81
2022/10/08 09:36:49;;;;;;;7.95;1.30;;;15.00;99.90;;;;;;5042685;28;20112;-81
2022/10/08 09:39:19;;;;;;;9.18;1.60;;;15.10;99.90;;;;;;5059663;28;20106;-80
2022/10/08 09:41:47;;;;;;;7.03;1.60;;;15.10;99.90;;;;;;5046441;28;20067;-81
2022/10/08 09:44:21;;;;;;;9.13;1.60;;;15.10;99.90;;;;;;5058810;28;20060;-80
2022/10/08 09:46:52;;;;;;;8.57;1.63;;;15.10;99.90;;;;;;5055013;28;20491;-81
2022/10/08 09:49:34;;;;;;;8.60;1.48;;;15.10;99.90;;;;;;5037811;28;20071;-79
2022/10/08 09:52:04;;;;;;;7.10;1.17;;;15.00;99.90;;;;;;5038224;28;20036;-81
2022/10/08 09:54:36;;;;;;;5.63;0.98;;;14.80;99.90;;;;;;5057158;28;20068;-81
2022/10/08 09:57:02;;;;;;;5.45;1.30;;;14.60;99.90;;;;;;5043854;28;20053;-80
2022/10/08 09:59:30;;;;;;;9.05;1.35;;;14.40;99.90;;;;;;5056964;28;20052;-81
2022/10/08 10:01:57;;;;;;;6.50;0.90;;;14.30;99.90;;;;;;5052575;28;20064;-81
2022/10/08 10:04:39;;;;;;;8.25;1.42;;;14.00;99.90;;;;;;5041713;28;20048;-81
2022/10/08 10:07:05;;;;;;;8.52;1.50;;;13.90;99.90;;;;;;5043423;28;20051;-81
2022/10/08 10:09:43;;;;;;;9.32;1.17;;;13.80;99.90;;;;;;5044062;28;20040;-81
2022/10/08 10:12:31;;;;;;;9.68;1.70;;;13.70;99.90;;;;;;5034117;28;20052;-81
2022/10/08 10:15:12;;;;;;;10.18;1.75;;;13.70;99.90;;;;;;5053101;28;20052;-82
2022/10/08 10:17:49;;;;;;;8.43;1.20;;;13.80;99.90;;;;;;5038250;28;20556;-82
2022/10/08 10:20:27;;;;;;;10.18;1.60;;;13.90;99.90;;;;;;5054537;28;20057;-82
2022/10/08 10:22:58;;;;;;;7.90;1.48;;;14.10;99.90;;;;;;5032937;28;20071;-79
2022/10/08 10:25:42;;;;;;;10.77;1.77;;;14.20;99.90;;;;;;5053002;28;20052;-81
2022/10/08 10:28:27;;;;;;;11.98;1.63;;;14.30;99.90;;;;;;5056775;28;20041;-81
2022/10/08 10:31:12;;;;;;;9.90;2.00;;;14.50;99.90;;;;;;5063447;28;20124;-81
2022/10/08 10:34:06;;;;;;;6.55;1.27;;;14.60;99.90;;;;;;5053583;28;20052;-78
2022/10/08 10:36:37;;;;;;;8.98;1.52;;;14.70;99.90;;;;;;5053671;28;20118;-81
2022/10/08 10:39:35;;;;;;;7.07;1.13;;;14.90;99.90;;;;;;5064180;28;20052;-81
2022/10/08 10:42:22;;;;;;;8.18;1.30;;;15.00;99.90;;;;;;5059095;28;20048;-80
2022/10/08 10:44:56;;;;;;;9.00;1.60;;;15.10;99.90;;;;;;5045621;28;20051;-81
2022/10/08 10:47:30;;;;;;;9.25;2.28;;;15.20;99.90;;;;;;5057734;28;20061;-81
2022/10/08 10:49:57;;;;;;;9.68;1.50;;;15.50;99.90;;;;;;5052820;28;20480;-82
2022/10/08 10:53:02;;;;;;;8.93;1.27;;;15.60;99.90;;;;;;5062755;28;20070;-80
2022/10/08 10:55:41;;;;;;;6.10;1.38;;;15.70;99.90;;;;;;5039450;28;20044;-78
2022/10/08 10:58:10;;;;;;;6.32;1.33;;;15.70;99.90;;;;;;5044137;28;20625;-79
2022/10/08 11:00:45;;;;;;;6.22;1.17;;;15.70;99.90;;;;;;5051296;28;20041;-81
2022/10/08 11:03:37;;;;;;;6.03;1.02;;;15.70;99.90;;;;;;5051072;28;20080;-81
2022/10/08 11:06:08;;;;;;;7.22;1.30;;;15.70;99.90;;;;;;5056406;28;20044;-79
2022/10/08 11:08:55;;;;;;;5.85;1.20;;;15.70;99.90;;;;;;5054344;28;20076;-79
2022/10/08 11:11:27;;;;;;;5.03;1.10;;;15.70;99.90;;;;;;5044451;28;20045;-79
2022/10/08 11:14:11;;;;;;;5.65;1.00;;;15.70;99.90;;;;;;5061464;28;20490;-79
2022/10/08 11:16:43;;;;;;;4.97;0.98;;;15.70;99.90;;;;;;5032174;28;20123;-79
2022/10/08 11:19:50;;;;;;;6.90;1.05;;;15.70;99.90;;;;;;5074488;28;20048;-80
2022/10/08 11:22:26;;;;;;;6.05;0.90;;;15.70;99.90;;;;;;5057568;28;20047;-80
2022/10/08 11:25:02;;;;;;;6.82;1.00;;;15.70;99.90;;;;;;5054840;28;20052;-80
2022/10/08 11:27:53;;;;;;;6.22;1.20;;;15.60;99.90;;;;;;5056343;28;20049;-80
2022/10/08 11:30:30;;;;;;;6.15;1.30;;;15.50;99.90;;;;;;5074162;28;21514;-80
2022/10/08 11:32:57;;;;;;;8.88;1.48;;;15.40;99.90;;;;;;5054233;28;20045;-79
2022/10/08 11:35:49;;;;;;;7.30;1.15;;;15.30;99.90;;;;;;5062824;28;20550;-80
2022/10/08 11:38:33;;;;;;;8.15;1.60;;;15.30;99.90;;;;;;5016298;28;20132;-80
2022/10/08 11:41:25;;;;;;;6.28;1.40;;;15.20;99.90;;;;;;5053079;28;20036;-80
2022/10/08 11:43:59;;;;;;;6.82;1.30;;;15.30;99.90;;;;;;5076353;28;20092;-80
2022/10/08 11:46:32;;;;;;;7.80;1.23;;;15.30;99.90;;;;;;5063717;28;20077;-80
2022/10/08 11:49:08;;;;;;;6.55;1.48;;;15.50;99.90;;;;;;5050377;28;20577;-81
2022/10/08 11:51:38;;;;;;;10.45;1.40;;;15.70;99.90;;;;;;5044589;28;20559;-80
2022/10/08 11:54:08;;;;;;;;;;;15.90;99.90;;;;;;5052332;28;20125;-80
2022/10/08 11:56:45;;;;;;;12.30;1.38;;;16.00;99.90;;;;;;5051470;28;20007;-80
2022/10/08 11:59:35;;;;;;;9.82;1.88;;;16.10;99.90;;;;;;5055373;28;20045;-80
2022/10/08 12:02:23;;;;;;;9.02;1.20;;;16.20;99.90;;;;;;5068092;28;20500;-80
2022/10/08 12:04:51;;;;;;;6.25;1.50;;;16.30;99.90;;;;;;5056206;28;20049;-79
2022/10/08 12:07:37;;;;;;;7.13;1.70;;;16.50;99.90;;;;;;5035652;28;20060;-80
2022/10/08 12:10:05;;;;;;;7.43;1.40;;;16.60;99.90;;;;;;5066514;28;20080;-81
2022/10/08 12:12:52;;;;;;;6.00;1.20;;;16.70;99.90;;;;;;5059873;28;20053;-79
2022/10/08 12:15:24;;;;;;;8.95;1.23;;;16.80;99.90;;;;;;5032831;28;20049;-80
2022/10/08 12:17:51;;;;;;;6.88;1.40;;;16.90;99.90;;;;;;5064094;28;20052;-80
2022/10/08 12:20:23;;;;;;;6.13;1.02;;;16.90;99.90;;;;;;5056223;28;20056;-79
2022/10/08 12:23:05;;;;;;;5.10;1.30;;;16.90;99.90;;;;;;5066470;28;20055;-79
2022/10/08 12:25:37;;;;;;;7.80;1.10;;;16.90;99.90;;;;;;5064546;28;20040;-80
2022/10/08 12:28:18;;;;;;;9.75;1.63;;;16.80;99.90;;;;;;5037944;28;20055;-79
2022/10/08 12:30:47;;;;;;;10.48;1.40;;;16.70;99.90;;;;;;5038593;28;20049;-79
2022/10/08 12:33:12;;;;;;;6.70;1.17;;;16.70;99.90;;;;;;5066401;28;20049;-80
2022/10/08 12:35:52;;;;;;;7.82;1.10;;;16.70;99.90;;;;;;5029015;28;20130;-79
2022/10/08 12:38:27;;;;;;;6.53;1.30;;;16.80;99.90;;;;;;5052938;28;20572;-77
2022/10/08 12:41:19;;;;;;;7.55;1.30;;;16.80;99.90;;;;;;5056692;28;20506;-78
2022/10/08 12:43:55;;;;;;;8.63;1.27;;;16.60;99.90;;;;;;5058776;28;20770;-78
2022/10/08 12:46:29;;;;;;;9.52;1.55;;;16.30;99.90;;;;;;5069078;28;20387;-77
2022/10/08 12:49:15;;;;;;;7.18;1.52;;;16.10;99.90;;;;;;5061910;28;20110;-77
2022/10/08 12:52:00;;;;;;;9.10;1.52;;;15.90;99.90;;;;;;5060544;28;20049;-77
2022/10/08 12:54:28;;;;;;;7.68;1.80;;;15.60;99.90;;;;;;5060414;28;20055;-77
2022/10/08 12:56:55;;;;;;;7.05;1.20;;;15.40;99.90;;;;;;5056659;28;20403;-77
2022/10/08 12:59:23;;;;;;;9.90;1.38;;;15.30;99.90;;;;;;5057990;28;20052;-77
2022/10/08 13:01:50;;;;;;;6.97;1.20;;;15.10;99.90;;;;;;5058882;28;20122;-76
2022/10/08 13:04:34;;;;;;;4.20;1.02;;;15.00;99.90;;;;;;5045715;28;20076;-78